METAR Data
IDs: Format: Raw Decoded Include TAF

Data at: 0824 UTC 20 Sep 2018

PAOO 200811Z AUTO 19017KT 7SM -RA OVC005 11/10 A3010 RMK AO2 CIG 003V009 P0001
PAOO 200756Z AUTO 19014KT 5SM -RA BR BKN003 OVC013 11/10 A3011 RMK AO2 CIG 003V008 SLP206 P0000 T01060100
PAOO 200731Z AUTO 19016KT 5SM -RA BR BKN003 OVC025 11/10 A3011 RMK AO2 P0000
PAOO 200703Z AUTO 18015KT 7SM -RA BKN005 OVC009 11/10 A3012 RMK AO2 CIG 003V009 P0000
PAOO 200656Z AUTO 18015KT 6SM -RA BR SCT005 BKN009 OVC015 10/09 A3012 RMK AO2 CIG 006V012 SLP211 P0000 T01000094
PAOO 200637Z AUTO 19015KT 8SM -RA SCT009 BKN019 OVC035 11/09 A3013 RMK AO2 P0000
PAOO 200625Z AUTO 19017KT 10SM -RA SCT009 SCT029 OVC036 11/09 A3012 RMK AO2 P0000
PAOO 200556Z AUTO 20014KT 10SM -RA BKN009 BKN013 OVC035 11/09 A3013 RMK AO2 RAB0458 SLP215 P0001 60002 T01060094 10106 20106 57012
PAOO 200535Z AUTO 19015KT 8SM -RA BKN009 OVC015 11/09 A3014 RMK AO2 RAB0458 CIG 008V012 P0001
PAOO 200506Z AUTO 20014KT 8SM -RA OVC013 11/09 A3014 RMK AO2 RAB0458 P0000
PAOO 200456Z AUTO 19014KT 7SM SCT010 OVC015 11/09 A3014 RMK AO2 RAB07E42 SLP219 P0000 T01060089
PAOO 200445Z AUTO 20016KT 9SM BKN015 OVC019 11/09 A3014 RMK AO2 RAB07E42 P0000
PAOO 200430Z AUTO 19014KT 10SM -RA BKN013 OVC020 11/09 A3015 RMK AO2 RAB07 P0000
PAOO 200356Z AUTO 20014KT 10SM BKN018 OVC027 11/08 A3015 RMK AO2 RAB08E24 SLP222 P0000 T01060083
PAOO 200347Z AUTO 20016KT 10SM BKN016 OVC027 11/08 A3015 RMK AO2 RAB08E24 P0000
PAOO 200326Z AUTO 20016KT 10SM BKN014 OVC021 11/08 A3016 RMK AO2 RAB08E24 P0000
PAOO 200256Z AUTO 20018KT 10SM OVC017 11/08 A3017 RMK AO2 SLP226 60001 T01060083 56015
PAOO 200156Z AUTO 19016KT 10SM SCT017 OVC022 11/08 A3018 RMK AO2 RAE56 SLP232 P0000 T01060083
PAOO 200112Z AUTO 20011KT 10SM -RA FEW009 BKN024 OVC050 11/09 A3019 RMK AO2 P0000
PAOO 200104Z AUTO 20013KT 10SM -RA FEW014 SCT023 OVC050 11/09 A3019 RMK AO2 P0000
PAOO 200056Z AUTO 20015KT 9SM -RA SCT012 BKN017 OVC050 11/09 A3019 RMK AO2 SLP235 P0001 T01060089
PAOO 200053Z AUTO 20014KT 10SM -RA FEW008 BKN015 OVC055 11/09 A3019 RMK AO2 P0001
PAOO 200044Z AUTO 20011KT 10SM -RA SCT011 BKN033 OVC055 11/09 A3020 RMK AO2 P0001
PAOO 200032Z AUTO 20013KT 10SM -RA BKN009 BKN015 OVC028 11/09 A3020 RMK AO2 P0001
PAOO 200025Z AUTO 20011KT 5SM -RA BR SCT009 BKN012 OVC028 11/09 A3020 RMK AO2 P0000
PAOO 192356Z AUTO 20012KT 9SM -RA SCT010 BKN018 OVC040 11/09 A3021 RMK AO2 SLP241 P0001 60001 T01060094 10111 20094 58011
PAOO 192339Z AUTO 20014KT 9SM -RA SCT012 BKN019 OVC031 11/09 A3021 RMK AO2 P0001
PAOO 192327Z AUTO 20011KT 10SM -RA BKN012 BKN019 OVC031 11/09 A3022 RMK AO2 P0001
PAOO 192256Z AUTO 20011KT 5SM -RA BR FEW010 BKN018 OVC035 11/09 A3023 RMK AO2 RAB36 SLP247 P0000 T01060094
PAOO 192247Z AUTO 20012KT 7SM -RA SCT013 BKN022 OVC029 11/09 A3023 RMK AO2 RAB36 P0000
PAOO 192210Z AUTO 22011KT 10SM BKN014 BKN030 OVC034 11/09 A3024 RMK AO2
PAOO 192156Z AUTO 22011KT 10SM SCT012 OVC034 11/09 A3023 RMK AO2 SLP249 T01110089
PAOO 192129Z AUTO 22012KT 10SM SCT011 BKN027 OVC040 11/09 A3025 RMK AO2
PAOO 192056Z AUTO 22012KT 10SM FEW009 BKN038 OVC045 11/09 A3024 RMK AO2 SLP252 60000 T01110094 58003
PAOO 191956Z AUTO 20005KT 10SM BKN009 BKN015 OVC036 10/09 A3024 RMK AO2 RAB15E44 SLP253 P0000 T01000094
PAOO 191940Z AUTO 21009KT 3SM -RA BR FEW004 BKN018 OVC036 09/09 A3025 RMK AO2 RAB15 P0000
PAOO 191935Z AUTO 22008KT 1 3/4SM -RA BR FEW005 BKN016 OVC031 09/09 A3025 RMK AO2 RAB15 P0000
PAOO 191927Z AUTO 22010KT 1 3/4SM -RA BR FEW005 SCT011 OVC031 10/09 A3025 RMK AO2 RAB15 P0000
PAOO 191921Z AUTO 22009KT 2SM -RA BR FEW010 SCT022 OVC033 10/09 A3025 RMK AO2 VIS 1 1/4V4 RAB15 P0000
PAOO 191856Z AUTO 21010KT 10SM FEW011 OVC037 11/09 A3025 RMK AO2 SLP256 T01060089
PAOO 191756Z AUTO 22009KT 10SM BKN043 OVC055 10/08 A3025 RMK AO2 SLP255 60001 T01000083 10100 20094 55004
PAOO 191656Z AUTO 24009KT 10SM OVC047 10/08 A3025 RMK AO2 SLP255 T01000083
PAOO 191556Z AUTO 22010KT 10SM OVC046 10/08 A3026 RMK AO2 SLP257 T01000083
PAOO 191525Z AUTO 22011KT 10SM FEW012 OVC044 09/08 A3026 RMK AO2
PAOO 191505Z AUTO 22011KT 10SM SCT010 BKN016 OVC046 10/08 A3026 RMK AO2
PAOO 191456Z AUTO 22011KT 10SM SCT010 BKN014 OVC048 10/08 A3026 RMK AO2 SLP259 60001 T01000083 56007
PAOO 191438Z AUTO 22012KT 10SM BKN014 BKN020 OVC050 09/08 A3026 RMK AO2
PAOO 191425Z AUTO 22013KT 10SM SCT014 BKN020 OVC050 09/08 A3027 RMK AO2
PAOO 191356Z AUTO 22013KT 10SM OVC012 09/08 A3027 RMK AO2 RAB05E23 SLP260 P0001 T00940083
PAOO 191335Z AUTO 21012KT 10SM SCT006 OVC010 09/08 A3027 RMK AO2 RAB05E23 P0001
PAOO 191322Z AUTO 21013KT 9SM -RA BKN006 OVC010 09/08 A3027 RMK AO2 RAB05 CIG 004V009 P0001
PAOO 191315Z AUTO 22012KT 3SM -RA BR SCT004 BKN010 OVC015 09/08 A3027 RMK AO2 RAB05 CIG 007V013 P0001
PAOO 191301Z AUTO 21015KT 9SM BKN013 BKN023 OVC050 09/08 A3027 RMK AO2
PAOO 191256Z AUTO 20016KT 9SM SCT013 BKN030 OVC050 09/08 A3027 RMK AO2 SLP262 T00940078
PAOO 191156Z AUTO 22011KT 10SM FEW016 OVC050 09/07 A3028 RMK AO2 RAE06 SLP266 P0000 60000 T00940072 10100 20089 58006
PAOO 191056Z AUTO 23009KT 7SM -RA SCT016 BKN033 OVC042 09/08 A3029 RMK AO2 RAB50 SLP268 P0000 T00940078
PAOO 191017Z AUTO 22010KT 10SM FEW019 OVC055 09/08 A3029 RMK AO2
PAOO 190956Z AUTO 22008KT 10SM SCT015 BKN022 OVC050 09/08 A3029 RMK AO2 SLP270 T00940078
PAOO 190917Z AUTO 22009KT 10SM BKN018 BKN037 OVC050 09/08 A3030 RMK AO2
PAOO 190856Z AUTO 22008KT 10SM FEW039 OVC050 09/08 A3030 RMK AO2 SLP272 T00940078 401110061 58004
PAOO 190756Z AUTO 22010KT 10SM FEW024 BKN050 09/07 A3031 RMK AO2 SLP274 T00940072
PAOO 190739Z AUTO 21011KT 10SM FEW019 SCT029 BKN033 09/07 A3031 RMK AO2
PAOO 190731Z AUTO 22012KT 10SM BKN029 BKN033 OVC042 09/07 A3031 RMK AO2
PAOO 190656Z AUTO 22010KT 10SM OVC031 09/07 A3031 RMK AO2 SLP275 T00940072
PAOO 190649Z AUTO 22011KT 10SM OVC031 09/07 A3031 RMK AO2
PAOO 190556Z AUTO 23007KT 10SM BKN027 OVC032 09/07 A3031 RMK AO2 SLP276 T00940072 10111 20094 51002
PAOO 190456Z AUTO 25009KT 10SM OVC027 10/07 A3031 RMK AO2 SLP276 T01000072
PAOO 190356Z AUTO 25009KT 10SM OVC035 11/07 A3031 RMK AO2 SLP274 T01060072
PAOO 190311Z AUTO 25010KT 10SM OVC031 11/08 A3030 RMK AO2
PAOO 190256Z AUTO 24011KT 10SM OVC029 11/07 A3030 RMK AO2 SLP273 T01060072 56002
PAOO 190249Z AUTO 24010KT 10SM OVC029 11/07 A3030 RMK AO2
PAOO 190156Z AUTO 25008KT 10SM OVC031 11/08 A3030 RMK AO2 SLP273 T01110078
PAOO 190112Z AUTO 26010KT 10SM OVC029 11/08 A3031 RMK AO2
PAOO 190103Z AUTO 26010KT 10SM OVC031 11/08 A3031 RMK AO2
PAOO 190056Z AUTO 26009KT 10SM FEW023 OVC029 11/08 A3031 RMK AO2 SLP274 T01110078
PAOO 182356Z AUTO 26009KT 10SM BKN027 OVC036 11/07 A3031 RMK AO2 SLP275 60000 T01060072 10111 20078 58000
PAOO 182256Z AUTO 26013KT 10SM OVC036 11/08 A3032 RMK AO2 SLP277 T01110078
PAOO 182232Z AUTO 25010KT 10SM SCT023 SCT028 OVC034 11/08 A3031 RMK AO2
PAOO 182222Z AUTO 25012KT 10SM BKN023 BKN028 OVC036 11/08 A3031 RMK AO2
PAOO 182156Z AUTO 26011KT 10SM BKN034 OVC044 11/08 A3031 RMK AO2 RAB06E36 SLP276 P0000 T01110078
PAOO 182142Z AUTO 25007KT 10SM OVC031 11/09 A3031 RMK AO2 RAB06E36 P0000
PAOO 182126Z AUTO 25007KT 6SM -RA BR SCT010 BKN027 OVC034 10/09 A3031 RMK AO2 RAB06 P0000
PAOO 182117Z AUTO 25006KT 5SM -RA BR FEW008 BKN012 OVC026 10/09 A3030 RMK AO2 RAB06 P0000
PAOO 182056Z AUTO 23008KT 9SM FEW010 BKN018 OVC034 11/08 A3030 RMK AO2 RAB23E42 SLP273 P0000 60000 T01060083 50007
PAOO 182037Z AUTO 25008KT 10SM -RA FEW013 BKN029 OVC050 10/09 A3030 RMK AO2 RAB23 P0000